Terminal Aerodrome Forecast
Issued by NWS

Current Version | Previous Version | Text Only | Print | Product List | Glossary On
Versions: 1 2 3 4 5 6 7 8 9 10 11 12 13 14 15 16 17
000
FTPQ31 PGUM 040523
TAFGUM
TAF

TAF
PGWT 040523Z 0406/0506 08015G23KT P6SM VCSH SCT015 SCT070
     FM040900 09013KT P6SM VCSH SCT020 SCT040=

USA.gov is the U.S. government's official web portal to all federal, state and local government web resources and services.